Time;durP1;ratioP1;P1;durP2;ratioP2;P2;SDS_P1;SDS_P2;PMS_P1;PMS_P2;Temp;Humidity;BMP_temperature;BMP_pressure;BME280_temperature;BME280_humidity;BME280_pressure;Samples;Min_cycle;Max_cycle;Signal;HPM_P1;HPM_P2
2023/10/30 00:00:08;;;;;;;1999.90;999.90;;;13.10;99.90;;;;;;5064606;28;20428;-70
2023/10/30 00:02:35;;;;;;;1999.90;999.90;;;13.10;99.90;;;;;;5068163;28;20427;-70
2023/10/30 00:05:02;;;;;;;1999.90;999.90;;;13.10;99.90;;;;;;5067719;28;20497;-70
2023/10/30 00:07:29;;;;;;;1999.90;999.90;;;13.20;99.90;;;;;;5068856;28;20829;-70
2023/10/30 00:09:55;;;;;;;1999.90;999.90;;;13.20;99.90;;;;;;5065088;28;20447;-69
2023/10/30 00:12:22;;;;;;;1999.90;999.90;;;13.20;99.90;;;;;;5066506;28;20435;-70
2023/10/30 00:14:51;;;;;;;1999.90;999.90;;;13.10;99.90;;;;;;5067871;28;20525;-70
2023/10/30 00:17:17;;;;;;;1999.90;999.90;;;13.10;99.90;;;;;;5063318;28;20439;-69
2023/10/30 00:19:44;;;;;;;1999.90;999.90;;;13.20;99.90;;;;;;5064869;28;20431;-70
2023/10/30 00:22:11;;;;;;;1999.90;999.90;;;13.20;99.90;;;;;;5066826;28;20443;-70
2023/10/30 00:24:38;;;;;;;1999.90;999.90;;;13.20;99.90;;;;;;5063478;28;20502;-69
2023/10/30 00:27:05;;;;;;;1999.90;999.90;;;13.20;99.90;;;;;;5065464;28;20446;-69
2023/10/30 00:29:34;;;;;;;1999.90;999.90;;;13.20;99.90;;;;;;5067345;28;20431;-69
2023/10/30 00:32:02;;;;;;;1999.90;999.90;;;13.20;99.90;;;;;;5067139;28;20943;-69
2023/10/30 00:34:29;;;;;;;1999.90;999.90;;;13.20;99.90;;;;;;5057549;28;20429;-69
2023/10/30 00:36:55;;;;;;;1999.90;999.90;;;13.20;99.90;;;;;;5067883;28;20841;-69
2023/10/30 00:39:22;;;;;;;1999.90;999.90;;;13.20;99.90;;;;;;5067835;28;20430;-69
2023/10/30 00:41:49;;;;;;;1999.90;999.90;;;13.20;99.90;;;;;;5067130;28;20435;-71
2023/10/30 00:44:15;;;;;;;1999.90;999.90;;;13.20;99.90;;;;;;5062332;28;20434;-70
2023/10/30 00:46:43;;;;;;;1999.90;999.90;;;13.20;99.90;;;;;;5065473;28;20436;-69
2023/10/30 00:49:11;;;;;;;1999.90;999.90;;;13.20;99.90;;;;;;5063062;28;20501;-69
2023/10/30 00:51:38;;;;;;;1999.90;999.90;;;13.30;99.90;;;;;;5060760;28;20435;-69
2023/10/30 00:54:05;;;;;;;1999.90;999.90;;;13.30;99.90;;;;;;5065460;28;20443;-70
2023/10/30 00:56:32;;;;;;;1999.90;999.90;;;13.30;99.90;;;;;;5066214;28;20427;-69
2023/10/30 00:58:58;;;;;;;1999.90;999.90;;;13.30;99.90;;;;;;5067490;28;20423;-69
2023/10/30 01:01:25;;;;;;;1999.90;999.90;;;13.30;99.90;;;;;;5067833;28;20432;-69
2023/10/30 01:03:52;;;;;;;1999.90;999.90;;;13.30;99.90;;;;;;5067170;28;20431;-70
2023/10/30 01:06:20;;;;;;;1999.90;999.90;;;13.20;99.90;;;;;;5061499;28;20431;-67
2023/10/30 01:08:47;;;;;;;1999.90;999.90;;;13.20;99.90;;;;;;5067406;28;20423;-69
2023/10/30 01:11:14;;;;;;;1999.90;999.90;;;13.30;99.90;;;;;;5063771;28;20432;-69
2023/10/30 01:13:40;;;;;;;1999.90;999.90;;;13.20;99.90;;;;;;5067316;28;20436;-70
2023/10/30 01:16:07;;;;;;;1999.90;999.90;;;13.20;99.90;;;;;;5062520;28;20427;-70
2023/10/30 01:18:34;;;;;;;1999.90;999.90;;;13.20;99.90;;;;;;5062557;28;20428;-70
2023/10/30 01:21:01;;;;;;;1999.90;999.90;;;13.20;99.90;;;;;;5064815;28;20440;-70
2023/10/30 01:23:29;;;;;;;1999.90;999.90;;;13.30;99.90;;;;;;5067284;28;20554;-69
2023/10/30 01:25:55;;;;;;;1999.90;999.90;;;13.30;99.90;;;;;;5065642;28;20819;-69
2023/10/30 01:28:22;;;;;;;1999.90;999.90;;;13.30;99.90;;;;;;5067463;28;20999;-69
2023/10/30 01:30:49;;;;;;;1999.90;999.90;;;13.20;99.90;;;;;;5061752;28;20957;-69
2023/10/30 01:33:16;;;;;;;1999.90;999.90;;;13.10;99.90;;;;;;5066867;28;20427;-69
2023/10/30 01:35:42;;;;;;;1999.90;999.90;;;13.20;99.90;;;;;;5066251;28;20496;-69
2023/10/30 01:38:09;;;;;;;1999.90;999.90;;;13.20;99.90;;;;;;5067231;28;20428;-69
2023/10/30 01:40:37;;;;;;;1999.90;999.90;;;13.20;99.90;;;;;;5061525;28;20433;-70
2023/10/30 01:43:09;;;;;;;1999.90;999.90;;;13.20;99.90;;;;;;5069827;28;20435;-70
2023/10/30 01:45:36;;;;;;;1999.90;999.90;;;13.20;99.90;;;;;;5066393;28;20497;-70
2023/10/30 01:48:03;;;;;;;1999.90;999.90;;;13.20;99.90;;;;;;5070569;28;20430;-68
2023/10/30 01:50:31;;;;;;;1999.90;999.90;;;13.20;99.90;;;;;;5069874;28;20435;-70
2023/10/30 01:52:58;;;;;;;1999.90;999.90;;;13.20;99.90;;;;;;5068520;28;20462;-69
2023/10/30 01:55:25;;;;;;;1999.90;999.90;;;13.20;99.90;;;;;;5070776;28;20431;-69
2023/10/30 01:57:53;;;;;;;1999.90;999.90;;;13.20;99.90;;;;;;5065654;28;20438;-69
2023/10/30 02:00:20;;;;;;;1999.90;999.90;;;13.20;99.90;;;;;;5070105;28;20423;-70
2023/10/30 02:02:47;;;;;;;1999.90;999.90;;;13.10;99.90;;;;;;5070365;28;20427;-70
2023/10/30 02:05:14;;;;;;;1999.90;999.90;;;13.10;99.90;;;;;;5070909;28;20431;-70
2023/10/30 02:07:41;;;;;;;1999.90;999.90;;;13.00;99.90;;;;;;5069676;28;20431;-69
2023/10/30 02:10:08;;;;;;;1999.90;999.90;;;13.00;99.90;;;;;;5064026;28;20458;-70
2023/10/30 02:12:35;;;;;;;1999.90;999.90;;;13.00;99.90;;;;;;5069561;28;20466;-69
2023/10/30 02:15:04;;;;;;;1999.90;999.90;;;13.10;99.90;;;;;;5069132;28;20427;-70
2023/10/30 02:17:31;;;;;;;1999.90;999.90;;;13.10;99.90;;;;;;5070266;28;20462;-69
2023/10/30 02:19:58;;;;;;;1999.90;999.90;;;13.10;99.90;;;;;;5061183;28;20432;-69
2023/10/30 02:22:24;;;;;;;1999.90;999.90;;;13.10;99.90;;;;;;5069270;28;20435;-69
2023/10/30 02:24:51;;;;;;;1999.90;999.90;;;13.00;99.90;;;;;;5069852;28;21161;-69
2023/10/30 02:27:19;;;;;;;1999.90;999.90;;;13.00;99.90;;;;;;5065672;28;20437;-69
2023/10/30 02:29:46;;;;;;;1999.90;999.90;;;13.00;99.90;;;;;;5061705;28;20431;-69
2023/10/30 02:32:14;;;;;;;1999.90;999.90;;;13.00;99.90;;;;;;5062384;28;20427;-69
2023/10/30 02:34:41;;;;;;;1999.90;999.90;;;13.00;99.90;;;;;;5069566;28;20438;-68
2023/10/30 02:37:08;;;;;;;1999.90;999.90;;;13.10;99.90;;;;;;5055534;28;20442;-69
2023/10/30 02:39:34;;;;;;;1999.90;999.90;;;13.10;99.90;;;;;;5057760;28;20462;-69
2023/10/30 02:42:02;;;;;;;1999.90;999.90;;;13.10;99.90;;;;;;5062095;28;20452;-70
2023/10/30 02:44:30;;;;;;;1999.90;999.90;;;13.10;99.90;;;;;;5066626;28;20435;-69
2023/10/30 02:46:58;;;;;;;1999.90;999.90;;;13.10;99.90;;;;;;5066775;28;20435;-69
2023/10/30 02:49:25;;;;;;;1999.90;999.90;;;13.10;99.90;;;;;;5059923;28;20429;-70
2023/10/30 02:51:51;;;;;;;1999.90;999.90;;;13.00;99.90;;;;;;5061467;28;20432;-69
2023/10/30 02:54:18;;;;;;;1999.90;999.90;;;13.00;99.90;;;;;;5065111;28;20940;-70
2023/10/30 02:56:45;;;;;;;1999.90;999.90;;;12.90;99.90;;;;;;5063175;28;20427;-69
2023/10/30 02:59:12;;;;;;;1999.90;999.90;;;13.00;99.90;;;;;;5068509;28;20427;-69
2023/10/30 03:01:41;;;;;;;1999.90;999.90;;;13.10;99.90;;;;;;5063601;28;20440;-69
2023/10/30 03:04:09;;;;;;;1999.90;999.90;;;13.00;99.90;;;;;;5056162;28;21009;-70
2023/10/30 03:06:36;;;;;;;1999.90;999.90;;;13.00;99.90;;;;;;5058524;28;20460;-71
2023/10/30 03:09:03;;;;;;;1999.90;999.90;;;13.10;99.90;;;;;;5063986;28;20423;-69
2023/10/30 03:11:30;;;;;;;1999.90;999.90;;;13.00;99.90;;;;;;5066999;28;20441;-70
2023/10/30 03:13:57;;;;;;;1999.90;999.90;;;13.00;99.90;;;;;;5067849;28;20434;-70
2023/10/30 03:16:23;;;;;;;1999.90;999.90;;;13.00;99.90;;;;;;5060614;28;20434;-70
2023/10/30 03:18:52;;;;;;;1999.90;999.90;;;12.90;99.90;;;;;;5057526;28;20425;-70
2023/10/30 03:21:19;;;;;;;1999.90;999.90;;;12.90;99.90;;;;;;5058933;28;20438;-69
2023/10/30 03:23:45;;;;;;;1999.90;999.90;;;12.90;99.90;;;;;;5063055;28;21018;-70
2023/10/30 03:26:12;;;;;;;1999.90;999.90;;;13.00;99.90;;;;;;5068212;28;20443;-70
2023/10/30 03:28:39;;;;;;;1999.90;999.90;;;13.00;99.90;;;;;;5062967;28;20808;-70
2023/10/30 03:31:06;;;;;;;1999.90;999.90;;;13.00;99.90;;;;;;5061002;28;20442;-68
2023/10/30 03:33:33;;;;;;;1999.90;999.90;;;12.90;99.90;;;;;;5059362;28;20433;-69
2023/10/30 03:36:02;;;;;;;1999.90;999.90;;;12.90;99.90;;;;;;5063851;28;20779;-70
2023/10/30 03:38:28;;;;;;;1999.90;999.90;;;13.00;99.90;;;;;;5068213;28;20450;-70
2023/10/30 03:40:55;;;;;;;1999.90;999.90;;;13.00;99.90;;;;;;5067142;28;21099;-70
2023/10/30 03:43:22;;;;;;;1999.90;999.90;;;13.10;99.90;;;;;;5060555;28;20435;-69
2023/10/30 03:45:49;;;;;;;1999.90;999.90;;;13.10;99.90;;;;;;5057984;28;20808;-69
2023/10/30 03:48:15;;;;;;;1999.90;999.90;;;13.10;99.90;;;;;;5063910;28;20448;-70
2023/10/30 03:50:42;;;;;;;1999.90;999.90;;;13.10;99.90;;;;;;5065317;28;20446;-70
2023/10/30 03:53:10;;;;;;;1999.90;999.90;;;13.10;99.90;;;;;;5065978;28;20829;-69
2023/10/30 03:55:37;;;;;;;1999.90;999.90;;;13.10;99.90;;;;;;5059390;28;20438;-70
2023/10/30 03:58:04;;;;;;;1999.90;999.90;;;13.00;99.90;;;;;;5058973;28;20429;-70
2023/10/30 04:00:31;;;;;;;1999.90;999.90;;;13.00;99.90;;;;;;5060676;28;20515;-70
2023/10/30 04:02:58;;;;;;;1999.90;999.90;;;13.00;99.90;;;;;;5063639;28;20436;-69
2023/10/30 04:05:24;;;;;;;1999.90;999.90;;;12.90;99.90;;;;;;5065770;28;20431;-69
2023/10/30 04:07:51;;;;;;;1999.90;999.90;;;12.90;99.90;;;;;;5061400;28;20952;-70
2023/10/30 04:10:19;;;;;;;1999.90;999.90;;;12.90;99.90;;;;;;5061605;28;20439;-69
2023/10/30 04:12:46;;;;;;;1999.90;999.90;;;12.90;99.90;;;;;;5059407;28;20809;-69
2023/10/30 04:15:15;;;;;;;1999.90;999.90;;;13.00;99.90;;;;;;5064441;28;21007;-69
2023/10/30 04:17:41;;;;;;;1999.90;999.90;;;13.00;99.90;;;;;;5067660;28;20462;-70
2023/10/30 04:20:09;;;;;;;1999.90;999.90;;;13.10;99.90;;;;;;5062624;28;20423;-70
2023/10/30 04:22:35;;;;;;;1999.90;999.90;;;13.10;99.90;;;;;;5054096;28;20803;-69
2023/10/30 04:25:02;;;;;;;1999.90;999.90;;;13.10;99.90;;;;;;5058923;28;20433;-70
2023/10/30 04:27:30;;;;;;;1999.90;999.90;;;13.10;99.90;;;;;;5064540;28;20464;-70
2023/10/30 04:29:57;;;;;;;1999.90;999.90;;;13.00;99.90;;;;;;5055119;28;20433;-69
2023/10/30 04:32:24;;;;;;;1999.90;999.90;;;13.00;99.90;;;;;;5067120;28;20435;-69
2023/10/30 04:34:51;;;;;;;1999.90;999.90;;;13.00;99.90;;;;;;5061283;28;20784;-70
2023/10/30 04:37:19;;;;;;;1999.90;999.90;;;12.90;99.90;;;;;;5058608;28;20846;-69
2023/10/30 04:39:46;;;;;;;1999.90;999.90;;;12.90;99.90;;;;;;5064384;28;20485;-69
2023/10/30 04:42:13;;;;;;;1999.90;999.90;;;12.90;99.90;;;;;;5065345;28;20506;-69
2023/10/30 04:44:41;;;;;;;1999.90;999.90;;;13.00;99.90;;;;;;5066227;28;20940;-69
2023/10/30 04:47:08;;;;;;;1999.90;999.90;;;13.00;99.90;;;;;;5059738;28;20427;-70
2023/10/30 04:49:35;;;;;;;1999.90;999.90;;;13.00;99.90;;;;;;5058534;28;20456;-70
2023/10/30 04:52:02;;;;;;;1999.90;999.90;;;13.00;99.90;;;;;;5062900;28;20857;-69
2023/10/30 04:54:29;;;;;;;1999.90;999.90;;;13.00;99.90;;;;;;5064130;28;20517;-70
2023/10/30 04:56:56;;;;;;;1999.90;999.90;;;13.00;99.90;;;;;;5063256;28;20446;-70
2023/10/30 04:59:23;;;;;;;1999.90;999.90;;;13.00;99.90;;;;;;5064728;28;20446;-70
2023/10/30 05:01:51;;;;;;;1999.90;999.90;;;13.00;99.90;;;;;;5061878;28;20799;-68
2023/10/30 05:04:18;;;;;;;1999.90;999.90;;;13.00;99.90;;;;;;5057920;28;20435;-70
2023/10/30 05:06:46;;;;;;;1999.90;999.90;;;13.20;99.90;;;;;;5063128;28;20439;-70
2023/10/30 05:09:14;;;;;;;1999.90;999.90;;;13.10;99.90;;;;;;5063483;28;20419;-70
2023/10/30 05:11:40;;;;;;;1999.90;999.90;;;13.10;99.90;;;;;;5063700;28;20427;-70
2023/10/30 05:14:08;;;;;;;1999.90;999.90;;;13.00;99.90;;;;;;5064957;28;20427;-69
2023/10/30 05:16:35;;;;;;;1999.90;999.90;;;13.10;99.90;;;;;;5057306;28;20423;-70
2023/10/30 05:19:03;;;;;;;1999.90;999.90;;;13.10;99.90;;;;;;5063924;28;20437;-70
2023/10/30 05:21:30;;;;;;;1999.90;999.90;;;13.10;99.90;;;;;;5065416;28;20428;-69
2023/10/30 05:23:57;;;;;;;1999.90;999.90;;;13.10;99.90;;;;;;5068930;28;20431;-69
2023/10/30 05:26:24;;;;;;;1999.90;999.90;;;13.10;99.90;;;;;;5068967;28;20433;-69
2023/10/30 05:28:50;;;;;;;1999.90;999.90;;;13.00;99.90;;;;;;5065934;28;20440;-69
2023/10/30 05:31:17;;;;;;;1999.90;999.90;;;12.90;99.90;;;;;;5061427;28;20442;-69
2023/10/30 05:33:44;;;;;;;1999.90;999.90;;;13.00;99.90;;;;;;5063697;28;20431;-70
2023/10/30 05:36:12;;;;;;;1999.90;999.90;;;13.00;99.90;;;;;;5070014;28;20439;-69
2023/10/30 05:38:39;;;;;;;1999.90;999.90;;;13.00;99.90;;;;;;5062844;28;20443;-70
2023/10/30 05:41:05;;;;;;;1999.90;999.90;;;13.10;99.90;;;;;;5067281;28;20436;-70
2023/10/30 05:43:32;;;;;;;1999.90;999.90;;;13.00;99.90;;;;;;5064873;28;20454;-69
2023/10/30 05:45:59;;;;;;;1999.90;999.90;;;13.10;99.90;;;;;;5063671;28;20429;-70
2023/10/30 05:48:26;;;;;;;1999.90;999.90;;;13.00;99.90;;;;;;5070443;28;20427;-70
2023/10/30 05:50:52;;;;;;;1999.90;999.90;;;13.00;99.90;;;;;;5084081;28;20663;-70
2023/10/30 05:53:20;;;;;;;1999.90;999.90;;;13.00;99.90;;;;;;5081596;28;20440;-69
2023/10/30 05:55:47;;;;;;;1999.90;999.90;;;13.10;99.90;;;;;;5073820;28;20432;-71
2023/10/30 05:58:14;;;;;;;1999.90;999.90;;;13.20;99.90;;;;;;5079027;28;20431;-70
2023/10/30 06:00:42;;;;;;;1999.90;999.90;;;13.20;99.90;;;;;;5064973;28;20514;-69
2023/10/30 06:03:09;;;;;;;1999.90;999.90;;;13.20;99.90;;;;;;5069646;28;20432;-70
2023/10/30 06:05:36;;;;;;;1999.90;999.90;;;13.20;99.90;;;;;;5068947;28;20423;-70
2023/10/30 06:08:03;;;;;;;1999.90;999.90;;;13.10;99.90;;;;;;5063987;28;20421;-69
2023/10/30 06:10:31;;;;;;;1999.90;999.90;;;13.20;99.90;;;;;;5064240;28;20423;-70
2023/10/30 06:12:58;;;;;;;1999.90;999.90;;;13.20;99.90;;;;;;5064200;28;20443;-70
2023/10/30 06:15:24;;;;;;;1999.90;999.90;;;13.10;99.90;;;;;;5064223;28;20898;-69
2023/10/30 06:17:51;;;;;;;1999.90;999.90;;;13.20;99.90;;;;;;5055346;28;20430;-69
2023/10/30 06:20:18;;;;;;;1999.90;999.90;;;13.30;99.90;;;;;;5065957;28;20436;-70
2023/10/30 06:22:44;;;;;;;1999.90;999.90;;;13.20;99.90;;;;;;5065968;28;20437;-69
2023/10/30 06:25:11;;;;;;;1999.90;999.90;;;13.00;99.90;;;;;;5063680;28;20442;-70
2023/10/30 06:27:41;;;;;;;1999.90;999.90;;;13.00;99.90;;;;;;5066137;28;20446;-70
2023/10/30 06:30:09;;;;;;;1999.90;999.90;;;13.10;99.90;;;;;;5054615;28;20573;-70
2023/10/30 06:32:37;;;;;;;1999.90;999.90;;;13.10;99.90;;;;;;5063472;28;20434;-69
2023/10/30 06:35:04;;;;;;;1999.90;999.90;;;13.00;99.90;;;;;;5065833;28;20437;-70
2023/10/30 06:37:30;;;;;;;1999.90;999.90;;;13.00;99.90;;;;;;5064914;28;20805;-71
2023/10/30 06:39:58;;;;;;;1999.90;999.90;;;13.20;99.90;;;;;;5066638;28;20431;-69
2023/10/30 06:42:24;;;;;;;1999.90;999.90;;;13.30;99.90;;;;;;5066833;28;20516;-70
2023/10/30 06:44:52;;;;;;;1999.90;999.90;;;13.30;99.90;;;;;;5063822;28;21095;-69
2023/10/30 06:47:19;;;;;;;1999.90;999.90;;;13.30;99.90;;;;;;5063144;28;20432;-69
2023/10/30 06:49:46;;;;;;;1999.90;999.90;;;13.10;99.90;;;;;;5065057;28;20434;-70
2023/10/30 06:52:13;;;;;;;1999.90;999.90;;;13.10;99.90;;;;;;5060986;28;20426;-70
2023/10/30 06:54:39;;;;;;;1999.90;999.90;;;13.00;99.90;;;;;;5067475;28;20544;-69
2023/10/30 06:57:06;;;;;;;1999.90;999.90;;;13.00;99.90;;;;;;5065747;28;20441;-70
2023/10/30 06:59:33;;;;;;;1999.90;999.90;;;13.00;99.90;;;;;;5062852;28;20442;-70
2023/10/30 07:02:02;;;;;;;1999.90;999.90;;;13.10;99.90;;;;;;5068408;28;20436;-68
2023/10/30 07:04:30;;;;;;;1999.90;999.90;;;13.10;99.90;;;;;;5065960;28;20555;-69
2023/10/30 07:06:57;;;;;;;1999.90;999.90;;;13.10;99.90;;;;;;5068147;28;20439;-70
2023/10/30 07:09:23;;;;;;;1999.90;999.90;;;13.10;99.90;;;;;;5062647;28;20434;-69
2023/10/30 07:11:50;;;;;;;1999.90;999.90;;;13.30;99.90;;;;;;5064526;28;20431;-70
2023/10/30 07:14:17;;;;;;;1999.90;999.90;;;13.30;99.90;;;;;;5064006;28;20429;-70
2023/10/30 07:16:44;;;;;;;1999.90;999.90;;;13.30;99.90;;;;;;5061908;28;20431;-69
2023/10/30 07:19:12;;;;;;;1999.90;999.90;;;13.30;99.90;;;;;;5067721;28;20432;-70
2023/10/30 07:21:39;;;;;;;1999.90;999.90;;;13.40;99.90;;;;;;5066681;28;20415;-69
2023/10/30 07:24:06;;;;;;;1999.90;999.90;;;13.30;99.90;;;;;;5066791;28;20440;-70
2023/10/30 07:26:33;;;;;;;1999.90;999.90;;;13.20;99.90;;;;;;5070600;28;20484;-69
2023/10/30 07:29:00;;;;;;;1999.90;999.90;;;13.20;99.90;;;;;;5061470;28;20440;-70
2023/10/30 07:31:26;;;;;;;1999.90;999.90;;;13.30;99.90;;;;;;5061672;28;20483;-69
2023/10/30 07:33:54;;;;;;;1999.90;999.90;;;13.10;99.90;;;;;;5063804;28;20440;-69
2023/10/30 07:36:22;;;;;;;1999.90;999.90;;;13.20;99.90;;;;;;5068381;28;20431;-70
2023/10/30 07:38:49;;;;;;;1999.90;999.90;;;13.20;99.90;;;;;;5070104;28;20422;-70
2023/10/30 07:41:16;;;;;;;1999.90;999.90;;;13.30;99.90;;;;;;5070782;28;20424;-70
2023/10/30 07:43:43;;;;;;;1999.90;999.90;;;13.40;99.90;;;;;;5070934;28;20419;-69
2023/10/30 07:46:13;;;;;;;1999.90;999.90;;;13.50;99.90;;;;;;5070642;28;20441;-70
2023/10/30 07:48:40;;;;;;;1999.90;999.90;;;13.50;99.90;;;;;;5070418;28;20411;-70
2023/10/30 07:51:07;;;;;;;1999.90;999.90;;;13.50;99.90;;;;;;5069528;28;20930;-70
2023/10/30 07:53:35;;;;;;;1999.90;999.90;;;13.50;99.90;;;;;;5067169;28;20915;-70
2023/10/30 07:56:02;;;;;;;1999.90;999.90;;;13.60;99.90;;;;;;5068172;28;20424;-69
2023/10/30 07:58:28;;;;;;;1999.90;999.90;;;13.70;99.90;;;;;;5068162;28;20890;-70
2023/10/30 08:00:55;;;;;;;1999.90;999.90;;;13.60;99.90;;;;;;5066694;28;20435;-70
2023/10/30 08:03:22;;;;;;;1999.90;999.90;;;13.70;99.90;;;;;;5068846;28;20940;-68
2023/10/30 08:05:49;;;;;;;1999.90;999.90;;;13.70;99.90;;;;;;5070351;28;20419;-70
2023/10/30 08:08:17;;;;;;;1999.90;999.90;;;13.70;99.90;;;;;;5070419;28;20412;-69
2023/10/30 08:10:47;;;;;;;1999.90;999.90;;;13.70;99.90;;;;;;5070374;28;20937;-70
2023/10/30 08:13:14;;;;;;;1999.90;999.90;;;13.80;99.90;;;;;;5070352;28;20790;-70
2023/10/30 08:15:41;;;;;;;1999.90;999.90;;;13.80;99.90;;;;;;5068858;28;20404;-70
2023/10/30 08:18:07;;;;;;;1999.90;999.90;;;14.00;99.90;;;;;;5067563;28;20436;-70
2023/10/30 08:20:34;;;;;;;1999.90;999.90;;;13.90;99.90;;;;;;5062327;28;20437;-70
2023/10/30 08:23:01;;;;;;;1999.90;999.90;;;14.00;99.90;;;;;;5064666;28;20446;-69
2023/10/30 08:25:28;;;;;;;1999.90;999.90;;;14.00;99.90;;;;;;5069813;28;20789;-69
2023/10/30 08:27:57;;;;;;;1999.90;999.90;;;14.10;99.90;;;;;;5066328;28;20439;-68
2023/10/30 08:30:24;;;;;;;1999.90;999.90;;;14.10;99.90;;;;;;5069342;28;20426;-69
2023/10/30 08:32:51;;;;;;;1999.90;999.90;;;14.30;99.90;;;;;;5057576;28;20431;-70
2023/10/30 08:35:18;;;;;;;1999.90;999.90;;;14.30;99.90;;;;;;5063558;28;20435;-70
2023/10/30 08:37:45;;;;;;;1999.90;999.90;;;14.40;99.90;;;;;;5067711;28;20915;-69
2023/10/30 08:40:12;;;;;;;1999.90;999.90;;;14.50;99.90;;;;;;5067414;28;20432;-69
2023/10/30 08:42:39;;;;;;;1999.90;999.90;;;14.50;99.90;;;;;;5061547;28;20428;-70
2023/10/30 08:45:08;;;;;;;1999.90;999.90;;;14.30;99.90;;;;;;5063185;28;20452;-69
2023/10/30 08:47:36;;;;;;;1999.90;999.90;;;14.40;99.90;;;;;;5059794;28;20455;-70
2023/10/30 08:50:02;;;;;;;1999.90;999.90;;;14.40;99.90;;;;;;5066557;28;20422;-69
2023/10/30 08:52:29;;;;;;;1999.90;999.90;;;14.60;99.90;;;;;;5068474;28;20431;-69
2023/10/30 08:54:56;;;;;;;1999.90;999.90;;;14.80;99.90;;;;;;5072045;28;20425;-69
2023/10/30 08:57:24;;;;;;;1999.90;999.90;;;14.90;99.90;;;;;;5068657;28;20815;-69
2023/10/30 08:59:51;;;;;;;1999.90;999.90;;;14.90;99.90;;;;;;5062853;28;21048;-69
2023/10/30 09:02:19;;;;;;;1999.90;999.90;;;14.90;99.90;;;;;;5068061;28;20434;-69
2023/10/30 09:04:46;;;;;;;1999.90;999.90;;;15.00;99.90;;;;;;5068786;28;20802;-69
2023/10/30 09:07:12;;;;;;;1999.90;999.90;;;15.00;99.90;;;;;;5064489;28;20460;-69
2023/10/30 09:09:39;;;;;;;1999.90;999.90;;;14.90;99.90;;;;;;5062354;28;20440;-70
2023/10/30 09:12:07;;;;;;;1999.90;999.90;;;14.80;99.90;;;;;;5066915;28;20427;-70
2023/10/30 09:14:33;;;;;;;1999.90;999.90;;;14.80;99.90;;;;;;5068071;28;20477;-69
2023/10/30 09:17:00;;;;;;;1999.90;999.90;;;14.80;99.90;;;;;;5070191;28;20458;-69
2023/10/30 09:19:28;;;;;;;1999.90;999.90;;;14.70;99.90;;;;;;5069771;28;20435;-70
2023/10/30 09:21:55;;;;;;;1999.90;999.90;;;14.70;99.90;;;;;;5065098;28;20424;-69
2023/10/30 09:24:22;;;;;;;1999.90;999.90;;;14.70;99.90;;;;;;5061493;28;20427;-70
2023/10/30 09:26:48;;;;;;;1999.90;999.90;;;14.70;99.90;;;;;;5064268;28;20431;-69
2023/10/30 09:29:15;;;;;;;1999.90;999.90;;;14.60;99.90;;;;;;5070949;28;20434;-69
2023/10/30 09:31:43;;;;;;;1999.90;999.90;;;14.60;99.90;;;;;;5080398;28;20747;-70
2023/10/30 09:34:09;;;;;;;1999.90;999.90;;;14.70;99.90;;;;;;5078714;28;20412;-69
2023/10/30 09:36:38;;;;;;;1999.90;999.90;;;14.80;99.90;;;;;;5076941;28;20411;-70
2023/10/30 09:39:04;;;;;;;1999.90;999.90;;;14.90;99.90;;;;;;5074831;28;20435;-69
2023/10/30 09:41:37;;;;;;;1999.90;999.90;;;14.90;99.90;;;;;;5069570;28;20431;-70
2023/10/30 09:44:06;;;;;;;1999.90;999.90;;;14.90;99.90;;;;;;5071311;28;20442;-70
2023/10/30 09:46:33;;;;;;;1999.90;999.90;;;15.10;99.90;;;;;;5070736;28;20431;-70
2023/10/30 09:49:00;;;;;;;1999.90;999.90;;;15.00;99.90;;;;;;5072777;28;20408;-70
2023/10/30 09:51:27;;;;;;;1999.90;999.90;;;15.00;99.90;;;;;;5072936;28;20418;-70
2023/10/30 09:53:58;;;;;;;1999.90;999.90;;;15.20;99.90;;;;;;5071894;28;20432;-70
2023/10/30 09:56:28;;;;;;;1999.90;999.90;;;15.40;99.90;;;;;;5072518;28;20894;-69
2023/10/30 09:58:55;;;;;;;1999.90;999.90;;;15.40;99.90;;;;;;5072668;28;20856;-70
2023/10/30 10:01:21;;;;;;;1999.90;999.90;;;15.50;99.90;;;;;;5071912;28;20438;-69
2023/10/30 10:03:48;;;;;;;1999.90;999.90;;;15.60;99.90;;;;;;5072842;28;20444;-69
2023/10/30 10:06:15;;;;;;;1999.90;999.90;;;15.90;99.90;;;;;;5072658;28;20423;-70
2023/10/30 10:08:43;;;;;;;1999.90;999.90;;;16.10;99.90;;;;;;5071281;28;20428;-69
2023/10/30 10:11:11;;;;;;;1999.90;999.90;;;16.20;99.90;;;;;;5072332;28;20408;-69
2023/10/30 10:13:40;;;;;;;1999.90;999.90;;;16.30;99.90;;;;;;5072759;28;20522;-70
2023/10/30 10:16:07;;;;;;;1999.90;999.90;;;16.20;99.90;;;;;;5072221;28;20419;-69
2023/10/30 10:18:35;;;;;;;1999.90;999.90;;;16.20;99.90;;;;;;5070740;28;20921;-70
2023/10/30 10:21:04;;;;;;;1999.90;999.90;;;16.20;99.90;;;;;;5059148;28;20892;-70
2023/10/30 10:23:33;;;;;;;1999.90;999.90;;;16.40;99.90;;;;;;5061286;28;20998;-69
2023/10/30 10:26:03;;;;;;;1999.90;999.90;;;16.60;99.90;;;;;;5066197;28;20424;-70
2023/10/30 10:28:31;;;;;;;1999.90;999.90;;;16.70;99.90;;;;;;5068208;28;20438;-69
2023/10/30 10:30:59;;;;;;;1999.90;999.90;;;16.80;99.90;;;;;;5063631;28;20431;-69
2023/10/30 10:33:27;;;;;;;1999.90;999.90;;;16.60;99.90;;;;;;5065382;28;20436;-69
2023/10/30 10:35:54;;;;;;;1999.90;999.90;;;16.50;99.90;;;;;;5071864;28;20403;-70
2023/10/30 10:38:22;;;;;;;1999.90;999.90;;;15.90;99.90;;;;;;5072196;28;20419;-70
2023/10/30 10:40:50;;;;;;;1999.90;999.90;;;15.90;99.90;;;;;;5068507;28;20440;-70
2023/10/30 10:43:19;;;;;;;1999.90;999.90;;;16.10;99.90;;;;;;5063390;28;20434;-71
2023/10/30 10:45:48;;;;;;;1999.90;999.90;;;15.90;99.90;;;;;;5058305;28;20425;-68
2023/10/30 10:48:15;;;;;;;1999.90;999.90;;;15.80;99.90;;;;;;5062640;28;20423;-68
2023/10/30 10:50:42;;;;;;;1999.90;999.90;;;15.80;99.90;;;;;;5068584;28;20459;-70
2023/10/30 10:53:11;;;;;;;1999.90;999.90;;;15.90;99.90;;;;;;5065942;28;20510;-69
2023/10/30 10:55:44;;;;;;;1999.90;999.90;;;15.90;99.90;;;;;;5065988;28;20460;-70
2023/10/30 10:58:14;;;;;;;1999.90;999.90;;;16.00;99.90;;;;;;5067321;28;20915;-70
2023/10/30 11:00:50;;;;;;;1999.90;999.90;;;15.90;99.90;;;;;;5069173;28;20427;-70
2023/10/30 11:03:17;;;;;;;1999.90;999.90;;;15.80;99.90;;;;;;5065932;28;20908;-70
2023/10/30 11:05:46;;;;;;;1999.90;999.90;;;15.80;99.90;;;;;;5064419;28;20431;-69
2023/10/30 11:08:33;;;;;;;1999.90;999.90;;;15.80;99.90;;;;;;5068051;28;20425;-69
2023/10/30 11:11:08;;;;;;;1999.90;999.90;;;15.80;99.90;;;;;;5067827;28;20499;-69
2023/10/30 11:13:44;;;;;;;1999.90;999.90;;;15.90;99.90;;;;;;5068610;28;20454;-69
2023/10/30 11:16:21;;;;;;;1999.90;999.90;;;16.00;99.90;;;;;;5067703;28;20940;-69
2023/10/30 11:18:51;;;;;;;1999.90;999.90;;;15.80;99.90;;;;;;5064808;28;20988;-69
2023/10/30 11:21:19;;;;;;;1999.90;999.90;;;15.80;99.90;;;;;;5068215;28;20427;-70
2023/10/30 11:23:52;;;;;;;1999.90;999.90;;;15.70;99.90;;;;;;5065304;28;20427;-69
2023/10/30 11:26:39;;;;;;;1999.90;999.90;;;15.70;99.90;;;;;;5065474;28;20458;-70
2023/10/30 11:29:09;;;;;;;1999.90;999.90;;;15.60;99.90;;;;;;5059222;28;20431;-68
2023/10/30 11:32:02;;;;;;;1999.90;999.90;;;15.50;99.90;;;;;;5063818;28;20427;-70
2023/10/30 11:34:30;;;;;;;1999.90;999.90;;;15.60;99.90;;;;;;5062772;28;20432;-70
2023/10/30 11:37:00;;;;;;;1999.90;999.90;;;15.50;99.90;;;;;;5063126;28;20434;-69
2023/10/30 11:39:27;;;;;;;1999.90;999.90;;;15.40;99.90;;;;;;5063128;28;20481;-70
2023/10/30 11:41:54;;;;;;;1999.90;999.90;;;15.40;99.90;;;;;;5065957;28;20795;-69
2023/10/30 11:44:21;;;;;;;1999.90;999.90;;;15.30;99.90;;;;;;5069851;28;20936;-69
2023/10/30 11:46:54;;;;;;;1999.90;999.90;;;15.30;99.90;;;;;;5061911;28;20427;-69
2023/10/30 11:49:22;;;;;;;1999.90;999.90;;;15.30;99.90;;;;;;5061592;28;20793;-69
2023/10/30 11:51:54;;;;;;;1999.90;999.90;;;15.30;99.90;;;;;;5066249;28;20453;-70
2023/10/30 11:54:24;;;;;;;1999.90;999.90;;;15.20;99.90;;;;;;5070828;28;20440;-69
2023/10/30 11:56:52;;;;;;;1999.90;999.90;;;15.20;99.90;;;;;;5070576;28;20422;-70
2023/10/30 11:59:20;;;;;;;1999.90;999.90;;;15.20;99.90;;;;;;5071465;28;20908;-69